createdAt,value
2024-02-13T00:00:58.168Z,3.85
2024-02-13T00:03:25.742Z,4.05
2024-02-13T00:05:53.065Z,4.25
2024-02-13T00:08:20.020Z,3.67
2024-02-13T00:10:47.256Z,4.10
2024-02-13T00:13:13.829Z,4.40
2024-02-13T00:15:40.658Z,3.95
2024-02-13T00:18:09.304Z,3.65
2024-02-13T00:20:36.127Z,4.07
2024-02-13T00:23:04.248Z,4.00
2024-02-13T00:25:30.793Z,4.10
2024-02-13T00:27:57.352Z,4.30
2024-02-13T00:30:24.799Z,4.22
2024-02-13T00:32:51.523Z,4.22
2024-02-13T00:35:18.227Z,4.47
2024-02-13T00:37:45.553Z,4.57
2024-02-13T00:40:12.066Z,4.70
2024-02-13T00:42:38.998Z,4.60
2024-02-13T00:45:08.306Z,4.60
2024-02-13T00:47:35.546Z,4.70
2024-02-13T00:50:03.828Z,4.78
2024-02-13T00:52:30.330Z,5.13
2024-02-13T00:54:57.387Z,4.88
2024-02-13T00:57:25.267Z,4.47
2024-02-13T00:59:52.422Z,5.40
2024-02-13T01:02:19.118Z,4.78
2024-02-13T01:04:45.703Z,5.13
2024-02-13T01:07:12.333Z,4.80
2024-02-13T01:09:38.844Z,5.22
2024-02-13T01:12:05.459Z,5.72
2024-02-13T01:14:32.366Z,5.30
2024-02-13T01:16:58.906Z,5.30
2024-02-13T01:19:25.376Z,5.30
2024-02-13T01:21:51.999Z,6.07
2024-02-13T01:24:18.504Z,6.15
2024-02-13T01:26:45.848Z,5.85
2024-02-13T01:29:15.912Z,5.47
2024-02-13T01:31:43.240Z,5.70
2024-02-13T01:34:09.885Z,5.80
2024-02-13T01:36:38.874Z,5.85
2024-02-13T01:39:06.296Z,6.18
2024-02-13T01:41:33.254Z,5.78
2024-02-13T01:44:00.914Z,6.15
2024-02-13T01:46:29.586Z,6.90
2024-02-13T01:49:00.011Z,6.18
2024-02-13T01:51:29.085Z,6.22
2024-02-13T01:53:59.810Z,6.07
2024-02-13T01:56:28.908Z,6.32
2024-02-13T01:58:56.782Z,6.53
2024-02-13T02:01:25.968Z,6.63
2024-02-13T02:03:54.694Z,6.55
2024-02-13T02:06:21.941Z,7.25
2024-02-13T02:08:48.851Z,6.93
2024-02-13T02:11:15.560Z,7.40
2024-02-13T02:13:43.667Z,8.05
2024-02-13T02:16:10.282Z,7.95
2024-02-13T02:18:37.415Z,7.22
2024-02-13T02:21:04.286Z,7.90
2024-02-13T02:23:31.060Z,7.38
2024-02-13T02:25:57.886Z,7.68
2024-02-13T02:28:25.425Z,7.78
2024-02-13T02:30:52.173Z,8.38
2024-02-13T02:33:19.020Z,7.65
2024-02-13T02:35:45.653Z,8.63
2024-02-13T02:38:12.399Z,8.52
2024-02-13T02:40:39.047Z,8.02
2024-02-13T02:43:05.600Z,8.27
2024-02-13T02:45:32.225Z,8.18
2024-02-13T02:47:58.906Z,8.32
2024-02-13T02:50:25.681Z,8.75
2024-02-13T02:52:52.802Z,9.18
2024-02-13T02:55:19.851Z,8.50
2024-02-13T02:57:46.714Z,9.02
2024-02-13T03:00:15.690Z,9.25
2024-02-13T03:02:42.958Z,9.30
2024-02-13T03:05:10.300Z,8.95
2024-02-13T03:07:37.306Z,8.43
2024-02-13T03:10:11.201Z,9.07
2024-02-13T03:12:38.494Z,7.93
2024-02-13T03:15:05.422Z,8.25
2024-02-13T03:17:32.886Z,8.77
2024-02-13T03:19:59.555Z,8.23
2024-02-13T03:22:29.297Z,8.50
2024-02-13T03:24:55.909Z,8.38
2024-02-13T03:27:22.454Z,7.65
2024-02-13T03:29:49.111Z,7.78
2024-02-13T03:32:15.763Z,8.23
2024-02-13T03:34:42.944Z,7.25
2024-02-13T03:37:09.854Z,6.80
2024-02-13T03:39:37.212Z,7.95
2024-02-13T03:42:04.020Z,7.65
2024-02-13T03:44:30.544Z,7.60
2024-02-13T03:46:57.049Z,7.22
2024-02-13T03:49:24.241Z,6.63
2024-02-13T03:51:50.825Z,7.13
2024-02-13T03:54:17.367Z,6.57
2024-02-13T03:56:44.556Z,7.10
2024-02-13T03:59:14.044Z,6.70
2024-02-13T04:01:41.016Z,6.53
2024-02-13T04:04:07.586Z,6.07
2024-02-13T04:06:34.563Z,5.68
2024-02-13T04:09:03.948Z,5.90
2024-02-13T04:11:31.658Z,5.70
2024-02-13T04:13:58.428Z,5.78
2024-02-13T04:16:25.263Z,5.10
2024-02-13T04:18:54.403Z,5.57
2024-02-13T04:21:21.925Z,5.43
2024-02-13T04:23:50.228Z,6.20
2024-02-13T04:26:25.984Z,5.35
2024-02-13T04:29:02.791Z,5.80
2024-02-13T04:31:29.293Z,6.05
2024-02-13T04:33:55.999Z,5.68
2024-02-13T04:36:22.691Z,5.72
2024-02-13T04:38:49.456Z,6.95
2024-02-13T04:41:19.359Z,6.20
2024-02-13T04:43:46.006Z,6.35
2024-02-13T04:46:12.538Z,6.55
2024-02-13T04:48:40.451Z,6.28
2024-02-13T04:51:07.111Z,6.57
2024-02-13T04:53:33.911Z,6.90
2024-02-13T04:56:00.580Z,7.32
2024-02-13T04:58:31.574Z,7.22
2024-02-13T05:01:06.615Z,7.13
2024-02-13T05:03:42.857Z,6.88
2024-02-13T05:06:28.512Z,8.27
2024-02-13T05:08:57.142Z,8.18
2024-02-13T05:11:24.844Z,7.85
2024-02-13T05:13:52.028Z,8.00
2024-02-13T05:16:19.634Z,8.07
2024-02-13T05:18:49.297Z,8.20
2024-02-13T05:21:19.820Z,8.55
2024-02-13T05:23:48.746Z,8.70
2024-02-13T05:26:15.578Z,8.20
2024-02-13T05:28:43.694Z,8.25
2024-02-13T05:31:10.423Z,8.27
2024-02-13T05:33:37.535Z,8.70
2024-02-13T05:36:05.306Z,8.50
2024-02-13T05:38:38.979Z,10.10
2024-02-13T05:41:08.522Z,9.07
2024-02-13T05:43:34.990Z,9.40
2024-02-13T05:46:01.546Z,8.70
2024-02-13T05:48:28.178Z,9.43
2024-02-13T05:50:55.765Z,9.23
2024-02-13T05:53:23.163Z,9.13
2024-02-13T05:55:50.003Z,9.95
2024-02-13T05:58:16.471Z,8.68
2024-02-13T06:00:43.272Z,9.60
2024-02-13T06:03:10.072Z,9.32
2024-02-13T06:05:36.804Z,10.50
2024-02-13T06:08:04.833Z,10.13
2024-02-13T06:10:34.911Z,10.43
2024-02-13T06:13:01.458Z,10.20
2024-02-13T06:15:27.976Z,10.40
2024-02-13T06:17:55.534Z,10.48
2024-02-13T06:20:22.365Z,10.25
2024-02-13T06:22:48.992Z,10.88
2024-02-13T06:25:16.175Z,12.60
2024-02-13T06:27:42.688Z,11.27
2024-02-13T06:30:09.737Z,10.23
2024-02-13T06:32:36.361Z,11.25
2024-02-13T06:35:03.071Z,11.48
2024-02-13T06:37:29.565Z,11.13
2024-02-13T06:39:56.578Z,10.77
2024-02-13T06:42:23.096Z,11.52
2024-02-13T06:44:49.764Z,11.00
2024-02-13T06:47:16.285Z,11.98
2024-02-13T06:49:42.912Z,11.10
2024-02-13T06:52:10.914Z,12.15
2024-02-13T06:54:37.513Z,12.38
2024-02-13T06:57:04.972Z,11.95
2024-02-13T06:59:31.640Z,12.63
2024-02-13T07:01:58.276Z,11.68
2024-02-13T07:04:24.858Z,12.30
2024-02-13T07:07:08.540Z,12.07
2024-02-13T07:09:46.940Z,13.35
2024-02-13T07:12:13.511Z,12.82
2024-02-13T07:14:40.206Z,12.82
2024-02-13T07:17:06.746Z,12.88
2024-02-13T07:19:33.373Z,13.68
2024-02-13T07:21:59.892Z,12.70
2024-02-13T07:24:26.469Z,13.30
2024-02-13T07:26:53.106Z,12.98
2024-02-13T07:29:20.197Z,14.45
2024-02-13T07:31:47.690Z,14.40
2024-02-13T07:34:14.289Z,15.13
2024-02-13T07:36:41.034Z,14.02
2024-02-13T07:39:08.446Z,14.63
2024-02-13T07:41:36.702Z,14.63
2024-02-13T07:44:03.402Z,13.88
2024-02-13T07:46:30.397Z,14.80
2024-02-13T07:48:57.039Z,15.38
2024-02-13T07:51:24.053Z,15.25
2024-02-13T07:53:50.899Z,16.08
2024-02-13T07:56:20.220Z,14.88
2024-02-13T07:58:46.807Z,14.95
2024-02-13T08:01:13.958Z,15.32
2024-02-13T08:03:40.573Z,15.13
2024-02-13T08:06:07.572Z,15.55
2024-02-13T08:08:34.731Z,15.18
2024-02-13T08:11:01.311Z,14.90
2024-02-13T08:13:27.776Z,16.42
2024-02-13T08:15:54.273Z,16.25
2024-02-13T08:18:20.897Z,15.57
2024-02-13T08:20:47.692Z,14.35
2024-02-13T08:23:14.667Z,14.98
2024-02-13T08:25:41.598Z,16.75
2024-02-13T08:28:11.242Z,15.95
2024-02-13T08:30:38.010Z,15.00
2024-02-13T08:33:05.621Z,14.85
2024-02-13T08:35:32.514Z,16.42
2024-02-13T08:37:59.694Z,16.15
2024-02-13T08:40:26.230Z,15.85
2024-02-13T08:42:54.032Z,15.75
2024-02-13T08:45:21.955Z,16.65
2024-02-13T08:47:50.795Z,16.58
2024-02-13T08:50:18.428Z,17.00
2024-02-13T08:52:45.468Z,17.00
2024-02-13T08:55:11.946Z,16.38
2024-02-13T08:57:39.016Z,17.45
2024-02-13T09:00:11.421Z,16.83
2024-02-13T09:02:38.348Z,18.38
2024-02-13T09:05:05.738Z,18.33
2024-02-13T09:07:32.595Z,17.02
2024-02-13T09:09:59.709Z,18.65
2024-02-13T09:12:26.386Z,18.20
2024-02-13T09:14:53.019Z,17.95
2024-02-13T09:17:19.733Z,19.60
2024-02-13T09:19:46.524Z,18.38
2024-02-13T09:22:14.887Z,16.85
2024-02-13T09:24:45.387Z,16.80
2024-02-13T09:27:12.702Z,18.40
2024-02-13T09:29:39.777Z,17.20
2024-02-13T09:32:06.476Z,16.65
2024-02-13T09:34:33.214Z,15.95
2024-02-13T09:37:00.225Z,16.27
2024-02-13T09:39:26.766Z,18.20
2024-02-13T09:41:55.180Z,16.58
2024-02-13T09:44:21.855Z,16.75
2024-02-13T09:46:50.811Z,16.55
2024-02-13T09:49:18.304Z,17.15
2024-02-13T09:51:49.249Z,16.50
2024-02-13T09:54:16.612Z,17.42
2024-02-13T09:56:43.838Z,17.20
2024-02-13T09:59:13.128Z,17.45
2024-02-13T10:01:39.895Z,16.70
2024-02-13T10:04:07.969Z,16.60
2024-02-13T10:06:34.871Z,18.40
2024-02-13T10:09:02.165Z,18.27
2024-02-13T10:11:37.503Z,18.50
2024-02-13T10:14:04.306Z,17.13
2024-02-13T10:16:32.040Z,17.58
2024-02-13T10:19:01.642Z,18.20
2024-02-13T10:21:30.488Z,17.60
2024-02-13T10:24:14.821Z,19.05
2024-02-13T10:29:09.009Z,17.95
2024-02-13T10:31:36.670Z,17.50
2024-02-13T10:34:08.349Z,17.77
2024-02-13T10:36:39.783Z,17.95
2024-02-13T10:39:09.338Z,17.83
2024-02-13T10:41:44.759Z,19.48
2024-02-13T10:44:12.120Z,19.45
2024-02-13T10:46:43.098Z,17.75
2024-02-13T10:49:34.276Z,19.05
2024-02-13T10:52:00.928Z,19.67
2024-02-13T10:54:28.090Z,18.48
2024-02-13T10:56:56.194Z,18.95
2024-02-13T10:59:23.795Z,18.25
2024-02-13T11:01:52.903Z,18.95
2024-02-13T11:04:20.948Z,18.30
2024-02-13T11:06:47.610Z,19.08
2024-02-13T11:09:14.496Z,18.77
2024-02-13T11:11:46.110Z,18.45
2024-02-13T11:14:23.227Z,18.67
2024-02-13T11:17:10.777Z,17.75
2024-02-13T11:19:45.650Z,19.00
2024-02-13T11:22:17.428Z,18.58
2024-02-13T11:24:53.107Z,18.40
2024-02-13T11:27:29.872Z,18.95
2024-02-13T11:30:00.175Z,18.27
2024-02-13T11:32:30.658Z,19.58
2024-02-13T11:35:02.623Z,18.58
2024-02-13T11:37:29.700Z,18.75
2024-02-13T11:39:58.714Z,17.80
2024-02-13T11:42:33.643Z,18.20
2024-02-13T11:45:01.559Z,17.83
2024-02-13T11:47:28.455Z,17.73
2024-02-13T11:49:56.428Z,17.80
2024-02-13T11:52:24.596Z,17.98
2024-02-13T11:54:52.228Z,18.38
2024-02-13T11:57:20.993Z,17.58
2024-02-13T12:00:02.572Z,17.90
2024-02-13T12:02:31.078Z,17.60
2024-02-13T12:04:57.574Z,17.35
2024-02-13T12:07:24.168Z,17.55
2024-02-13T12:09:52.387Z,16.80
2024-02-13T12:12:19.899Z,17.58
2024-02-13T12:14:46.907Z,16.75
2024-02-13T12:17:13.810Z,16.00
2024-02-13T12:19:41.872Z,16.48
2024-02-13T12:22:14.560Z,16.10
2024-02-13T12:24:41.778Z,14.93
2024-02-13T12:27:11.719Z,16.08
2024-02-13T12:29:43.630Z,16.20
2024-02-13T12:32:17.248Z,15.60
2024-02-13T12:34:45.024Z,16.95
2024-02-13T12:37:21.471Z,14.65
2024-02-13T12:39:48.775Z,14.50
2024-02-13T12:42:18.289Z,14.85
2024-02-13T12:44:45.457Z,15.32
2024-02-13T12:47:14.972Z,14.70
2024-02-13T12:49:46.670Z,14.07
2024-02-13T12:52:18.052Z,14.13
2024-02-13T12:54:47.400Z,13.88
2024-02-13T12:57:14.129Z,14.05
2024-02-13T12:59:40.632Z,13.38
2024-02-13T13:02:10.295Z,14.25
2024-02-13T13:04:37.040Z,13.43
2024-02-13T13:07:06.798Z,14.25
2024-02-13T13:09:33.428Z,13.82
2024-02-13T13:12:00.167Z,14.15
2024-02-13T13:14:28.791Z,13.50
2024-02-13T13:16:56.600Z,13.30
2024-02-13T13:19:28.789Z,14.23
2024-02-13T13:21:56.460Z,13.30
2024-02-13T13:24:24.019Z,12.23
2024-02-13T13:26:51.573Z,12.48
2024-02-13T13:29:18.784Z,12.93
2024-02-13T13:31:48.589Z,12.88
2024-02-13T13:34:21.307Z,13.13
2024-02-13T13:36:48.714Z,12.23
2024-02-13T13:39:15.293Z,13.55
2024-02-13T13:41:42.569Z,12.27
2024-02-13T13:44:10.986Z,13.50
2024-02-13T13:46:37.603Z,13.30
2024-02-13T13:49:05.461Z,13.35
2024-02-13T13:51:34.713Z,12.43
2024-02-13T13:54:01.803Z,13.32
2024-02-13T13:56:28.371Z,12.13
2024-02-13T13:58:54.824Z,12.20
2024-02-13T14:01:21.462Z,11.90
2024-02-13T14:03:48.125Z,11.80
2024-02-13T14:06:14.898Z,11.43
2024-02-13T14:08:42.007Z,11.52
2024-02-13T14:11:08.689Z,11.57
2024-02-13T14:13:35.793Z,11.65
2024-02-13T14:16:02.430Z,11.55
2024-02-13T14:18:29.760Z,11.20
2024-02-13T14:20:56.946Z,11.55
2024-02-13T14:23:24.535Z,12.25
2024-02-13T14:25:51.687Z,11.02
2024-02-13T14:28:19.055Z,11.60
2024-02-13T14:30:47.216Z,10.43
2024-02-13T14:33:14.557Z,11.88
2024-02-13T14:35:43.422Z,10.80
2024-02-13T14:38:10.143Z,11.18
2024-02-13T14:40:40.857Z,10.13
2024-02-13T14:43:08.840Z,10.68
2024-02-13T14:45:36.737Z,9.85
2024-02-13T14:48:10.356Z,10.38
2024-02-13T14:50:39.033Z,10.57
2024-02-13T14:53:10.003Z,9.68
2024-02-13T14:55:39.681Z,8.77
2024-02-13T14:58:14.706Z,9.18
2024-02-13T15:00:54.151Z,9.70
2024-02-13T15:03:22.516Z,8.68
2024-02-13T15:05:49.280Z,8.57
2024-02-13T15:08:17.175Z,8.30
2024-02-13T15:10:45.334Z,8.05
2024-02-13T15:13:13.921Z,8.10
2024-02-13T15:15:40.468Z,8.52
2024-02-13T15:18:07.638Z,8.80
2024-02-13T15:20:36.429Z,8.30
2024-02-13T15:23:02.978Z,8.80
2024-02-13T15:25:30.018Z,8.65
2024-02-13T15:27:56.535Z,8.88
2024-02-13T15:30:23.870Z,8.82
2024-02-13T15:32:50.682Z,8.45
2024-02-13T15:35:20.226Z,10.07
2024-02-13T15:38:05.817Z,8.23
2024-02-13T15:40:51.003Z,8.73
2024-02-13T15:43:36.268Z,8.40
2024-02-13T15:46:21.112Z,8.27
2024-02-13T15:48:48.599Z,8.88
2024-02-13T15:51:15.959Z,7.35
2024-02-13T15:53:43.104Z,7.82
2024-02-13T15:56:10.996Z,8.25
2024-02-13T15:58:39.989Z,7.38
2024-02-13T16:01:07.258Z,8.25
2024-02-13T16:03:37.278Z,7.68
2024-02-13T16:06:04.236Z,8.10
2024-02-13T16:08:31.416Z,8.18
2024-02-13T16:10:58.639Z,8.13
2024-02-13T16:13:27.651Z,7.75
2024-02-13T16:15:56.162Z,7.55
2024-02-13T16:18:23.938Z,7.70
2024-02-13T16:20:50.590Z,8.13
2024-02-13T16:23:17.277Z,8.25
2024-02-13T16:25:44.018Z,7.80
2024-02-13T16:28:10.892Z,7.63
2024-02-13T16:30:37.474Z,7.80
2024-02-13T16:33:05.475Z,7.30
2024-02-13T16:35:32.494Z,7.43
2024-02-13T16:37:59.025Z,7.25
2024-02-13T16:40:27.612Z,7.07
2024-02-13T16:42:56.859Z,7.60
2024-02-13T16:45:25.461Z,6.63
2024-02-13T16:47:53.476Z,7.05
2024-02-13T16:50:20.589Z,6.80
2024-02-13T16:52:47.420Z,7.10
2024-02-13T16:55:15.060Z,7.22
2024-02-13T16:57:42.545Z,7.45
2024-02-13T17:00:11.777Z,7.53
2024-02-13T17:02:41.976Z,7.57
2024-02-13T17:05:12.140Z,6.97
2024-02-13T17:07:42.554Z,7.43
2024-02-13T17:10:10.021Z,7.85
2024-02-13T17:12:37.615Z,7.18
2024-02-13T17:15:08.500Z,7.40
2024-02-13T17:17:36.234Z,7.75
2024-02-13T17:20:05.066Z,7.15
2024-02-13T17:22:31.809Z,7.63
2024-02-13T17:24:58.342Z,8.25
2024-02-13T17:27:25.483Z,7.13
2024-02-13T17:29:52.965Z,6.60
2024-02-13T17:32:19.927Z,7.35
2024-02-13T17:34:46.460Z,7.00
2024-02-13T17:37:13.100Z,6.95
2024-02-13T17:39:39.619Z,6.90
2024-02-13T17:42:06.701Z,7.00
2024-02-13T17:44:33.353Z,7.55
2024-02-13T17:47:00.028Z,6.78
2024-02-13T17:49:26.750Z,6.63
2024-02-13T17:51:53.460Z,6.82
2024-02-13T17:54:19.974Z,6.82
2024-02-13T17:56:46.984Z,7.00
2024-02-13T17:59:13.543Z,6.65
2024-02-13T18:01:47.840Z,6.88
2024-02-13T18:04:14.417Z,6.22
2024-02-13T18:06:41.107Z,6.30
2024-02-13T18:09:07.989Z,6.43
2024-02-13T18:11:34.638Z,5.97
2024-02-13T18:14:01.893Z,6.75
2024-02-13T18:16:28.664Z,5.93
2024-02-13T18:18:57.295Z,5.72
2024-02-13T18:21:24.065Z,6.13
2024-02-13T18:23:55.217Z,5.88
2024-02-13T18:26:23.688Z,7.07
2024-02-13T18:28:50.246Z,6.88
2024-02-13T18:31:16.703Z,6.47
2024-02-13T18:33:43.558Z,6.53
2024-02-13T18:36:10.222Z,6.72
2024-02-13T18:38:36.996Z,6.47
2024-02-13T18:41:03.826Z,7.50
2024-02-13T18:43:30.478Z,7.10
2024-02-13T18:45:56.954Z,7.65
2024-02-13T18:48:26.483Z,7.13
2024-02-13T18:50:53.238Z,7.35
2024-02-13T18:53:28.059Z,7.20
2024-02-13T18:55:55.240Z,6.57
2024-02-13T18:58:22.038Z,6.60
2024-02-13T19:00:49.918Z,6.75
2024-02-13T19:03:20.681Z,6.60
2024-02-13T19:05:49.344Z,5.53
2024-02-13T19:08:15.955Z,5.97
2024-02-13T19:10:43.356Z,5.47
2024-02-13T19:13:09.860Z,5.70
2024-02-13T19:15:36.578Z,5.20
2024-02-13T19:18:03.659Z,5.55
2024-02-13T19:20:30.436Z,5.47
2024-02-13T19:22:56.998Z,4.82
2024-02-13T19:25:23.589Z,5.18
2024-02-13T19:27:50.903Z,5.43
2024-02-13T19:30:17.567Z,4.90
2024-02-13T19:32:44.149Z,4.60
2024-02-13T19:35:11.065Z,4.40
2024-02-13T19:37:38.068Z,4.88
2024-02-13T19:40:08.492Z,5.10
2024-02-13T19:42:36.386Z,4.45
2024-02-13T19:45:05.442Z,4.53
2024-02-13T19:47:32.570Z,4.65
2024-02-13T19:49:59.971Z,4.78
2024-02-13T19:52:30.734Z,4.47
2024-02-13T19:54:57.238Z,5.00
2024-02-13T19:57:23.707Z,4.70
2024-02-13T19:59:53.234Z,4.90
2024-02-13T20:02:21.126Z,4.55
2024-02-13T20:04:48.912Z,4.65
2024-02-13T20:07:16.273Z,5.20
2024-02-13T20:09:45.957Z,4.78
2024-02-13T20:12:12.664Z,4.93
2024-02-13T20:14:39.228Z,4.95
2024-02-13T20:17:06.092Z,4.95
2024-02-13T20:19:35.541Z,5.18
2024-02-13T20:22:02.352Z,4.75
2024-02-13T20:24:31.781Z,4.70
2024-02-13T20:26:59.824Z,4.57
2024-02-13T20:29:27.367Z,4.50
2024-02-13T20:31:53.902Z,5.50
2024-02-13T20:34:20.639Z,4.40
2024-02-13T20:36:53.387Z,4.30
2024-02-13T20:39:19.914Z,4.30
2024-02-13T20:41:46.444Z,4.60
2024-02-13T20:44:13.591Z,4.60
2024-02-13T20:46:42.120Z,4.82
2024-02-13T20:49:09.580Z,3.75
2024-02-13T20:51:36.684Z,4.35
2024-02-13T20:54:04.342Z,4.50
2024-02-13T20:56:30.940Z,4.25
2024-02-13T20:58:58.360Z,3.85
2024-02-13T21:01:28.240Z,3.97
2024-02-13T21:03:55.337Z,3.40
2024-02-13T21:06:25.086Z,3.70
2024-02-13T21:08:52.442Z,3.50
2024-02-13T21:11:19.541Z,4.03
2024-02-13T21:13:46.771Z,3.47
2024-02-13T21:16:15.456Z,3.47
2024-02-13T21:18:42.835Z,4.07
2024-02-13T21:21:28.060Z,3.45
2024-02-13T21:23:54.885Z,3.70
2024-02-13T21:26:21.543Z,3.50
2024-02-13T21:28:50.745Z,3.55
2024-02-13T21:31:17.544Z,3.75
2024-02-13T21:33:44.530Z,3.00
2024-02-13T21:36:11.323Z,3.20
2024-02-13T21:38:39.247Z,3.63
2024-02-13T21:41:06.199Z,3.50
2024-02-13T21:43:32.741Z,2.92
2024-02-13T21:45:59.422Z,2.90
2024-02-13T21:48:26.133Z,2.90
2024-02-13T21:50:52.745Z,3.22
2024-02-13T21:53:19.495Z,3.10
2024-02-13T21:55:46.019Z,2.72
2024-02-13T21:58:12.852Z,3.42
2024-02-13T22:00:39.361Z,3.40
2024-02-13T22:03:06.794Z,3.25
2024-02-13T22:05:34.145Z,3.17
2024-02-13T22:08:00.669Z,3.50
2024-02-13T22:10:27.161Z,3.03
2024-02-13T22:12:54.250Z,2.90
2024-02-13T22:15:22.107Z,3.45
2024-02-13T22:17:49.179Z,3.50
2024-02-13T22:20:16.796Z,3.10
2024-02-13T22:22:43.610Z,3.15
2024-02-13T22:25:11.398Z,3.05
2024-02-13T22:27:37.970Z,2.92
2024-02-13T22:30:04.964Z,3.53
2024-02-13T22:32:32.906Z,3.17
2024-02-13T22:34:59.888Z,3.28
2024-02-13T22:37:26.570Z,2.83
2024-02-13T22:39:53.212Z,3.10
2024-02-13T22:42:19.899Z,2.80
2024-02-13T22:44:46.576Z,2.70
2024-02-13T22:47:13.086Z,2.70
2024-02-13T22:49:39.774Z,2.80
2024-02-13T22:52:06.488Z,2.70
2024-02-13T22:54:32.947Z,2.80
2024-02-13T22:56:59.568Z,2.83
2024-02-13T22:59:26.082Z,3.05
2024-02-13T23:01:52.591Z,2.67
2024-02-13T23:04:19.820Z,3.05
2024-02-13T23:06:46.412Z,2.78
2024-02-13T23:09:18.049Z,2.80
2024-02-13T23:11:45.700Z,2.60
2024-02-13T23:14:15.101Z,2.80
2024-02-13T23:16:42.610Z,2.80
2024-02-13T23:19:11.344Z,2.55
2024-02-13T23:21:38.084Z,2.75
2024-02-13T23:24:09.038Z,2.78
2024-02-13T23:26:36.007Z,2.75
2024-02-13T23:29:02.564Z,2.60
2024-02-13T23:31:29.503Z,2.72
2024-02-13T23:33:56.320Z,2.67
2024-02-13T23:36:23.971Z,2.90
2024-02-13T23:38:50.829Z,2.95
2024-02-13T23:41:17.486Z,2.40
2024-02-13T23:43:44.736Z,2.70
2024-02-13T23:46:11.265Z,2.70
2024-02-13T23:48:38.596Z,2.67
2024-02-13T23:51:06.388Z,3.13
2024-02-13T23:53:33.125Z,2.45
2024-02-13T23:56:00.506Z,2.67
2024-02-13T23:58:28.130Z,2.72
